createdAt,value
2023-03-06T00:01:06.712Z,15.05
2023-03-06T00:04:08.835Z,21.67
2023-03-06T00:07:11.327Z,16.83
2023-03-06T00:10:14.414Z,19.63
2023-03-06T00:13:23.097Z,19.50
2023-03-06T00:16:25.927Z,18.38
2023-03-06T00:19:28.432Z,17.52
2023-03-06T00:22:30.736Z,16.42
2023-03-06T00:25:34.916Z,16.35
2023-03-06T00:28:37.374Z,20.17
2023-03-06T00:31:39.646Z,15.98
2023-03-06T00:34:42.150Z,17.27
2023-03-06T00:37:44.200Z,19.35
2023-03-06T00:40:46.290Z,21.00
2023-03-06T00:43:48.423Z,18.17
2023-03-06T00:46:50.526Z,16.77
2023-03-06T00:49:52.901Z,20.48
2023-03-06T00:52:54.946Z,16.67
2023-03-06T00:55:57.344Z,15.32
2023-03-06T00:58:59.887Z,18.83
2023-03-06T01:02:02.445Z,20.55
2023-03-06T01:05:04.887Z,20.57
2023-03-06T01:08:07.066Z,15.02
2023-03-06T01:11:09.125Z,17.38
2023-03-06T01:14:11.092Z,15.37
2023-03-06T01:17:13.208Z,15.60
2023-03-06T01:20:16.220Z,16.77
2023-03-06T01:23:18.301Z,19.02
2023-03-06T01:26:20.436Z,18.08
2023-03-06T01:29:22.960Z,19.50
2023-03-06T01:32:24.986Z,18.90
2023-03-06T01:35:27.107Z,20.10
2023-03-06T01:38:29.744Z,18.30
2023-03-06T01:41:32.864Z,15.32
2023-03-06T01:44:35.361Z,19.10
2023-03-06T01:47:37.404Z,19.02
2023-03-06T01:50:40.546Z,16.73
2023-03-06T01:53:43.674Z,15.88
2023-03-06T01:56:46.431Z,18.27
2023-03-06T01:59:53.052Z,14.38
2023-03-06T02:02:55.728Z,15.00
2023-03-06T02:05:57.861Z,13.87
2023-03-06T02:08:59.969Z,15.60
2023-03-06T02:12:02.697Z,13.77
2023-03-06T02:15:04.924Z,12.33
2023-03-06T02:18:06.932Z,15.27
2023-03-06T02:21:10.085Z,14.65
2023-03-06T02:24:33.154Z,14.55
2023-03-06T02:27:35.667Z,15.60
2023-03-06T02:30:37.646Z,13.05
2023-03-06T02:33:40.537Z,15.02
2023-03-06T02:37:03.148Z,14.53
2023-03-06T02:40:08.907Z,13.32
2023-03-06T02:43:11.564Z,15.40
2023-03-06T02:46:13.934Z,12.87
2023-03-06T02:49:16.064Z,14.57
2023-03-06T02:52:18.316Z,14.18
2023-03-06T02:55:20.356Z,14.52
2023-03-06T02:58:22.415Z,16.52
2023-03-06T03:01:24.691Z,12.98
2023-03-06T03:04:27.935Z,14.70
2023-03-06T03:07:30.377Z,15.23
2023-03-06T03:10:33.311Z,17.02
2023-03-06T03:13:35.541Z,13.23
2023-03-06T03:16:39.189Z,14.07
2023-03-06T03:19:41.336Z,14.27
2023-03-06T03:22:43.797Z,15.52
2023-03-06T03:25:46.435Z,14.13
2023-03-06T03:28:49.343Z,14.70
2023-03-06T03:31:54.555Z,13.68
2023-03-06T03:35:00.134Z,17.00
2023-03-06T03:38:03.318Z,17.97
2023-03-06T03:41:05.663Z,13.63
2023-03-06T03:44:08.903Z,14.38
2023-03-06T03:47:11.108Z,15.13
2023-03-06T03:50:13.824Z,13.85
2023-03-06T03:53:16.150Z,13.40
2023-03-06T03:56:18.764Z,11.93
2023-03-06T03:59:29.325Z,14.15
2023-03-06T04:02:47.853Z,11.40
2023-03-06T04:06:02.707Z,10.50
2023-03-06T04:09:05.092Z,11.53
2023-03-06T04:12:08.425Z,10.85
2023-03-06T04:15:12.270Z,14.57
2023-03-06T04:18:16.648Z,14.47
2023-03-06T04:21:19.420Z,15.02
2023-03-06T04:24:21.943Z,12.07
2023-03-06T04:27:24.076Z,15.13
2023-03-06T04:30:26.737Z,13.48
2023-03-06T04:33:29.403Z,14.32
2023-03-06T04:36:32.200Z,206.10
2023-03-06T04:39:39.762Z,18.10
2023-03-06T04:42:42.177Z,11.95
2023-03-06T04:45:44.875Z,15.40
2023-03-06T04:48:57.388Z,14.35
2023-03-06T04:51:59.905Z,15.00
2023-03-06T04:55:08.641Z,13.57
2023-03-06T04:58:11.712Z,13.90
2023-03-06T05:01:14.282Z,13.43
2023-03-06T05:04:16.366Z,20.20
2023-03-06T05:07:18.500Z,20.73
2023-03-06T05:10:20.670Z,22.65
2023-03-06T05:13:23.205Z,19.38
2023-03-06T05:16:25.665Z,18.25
2023-03-06T05:19:27.924Z,21.88
2023-03-06T05:22:29.907Z,27.70
2023-03-06T05:25:32.018Z,19.13
2023-03-06T05:28:34.056Z,45.85
2023-03-06T05:31:36.328Z,26.23
2023-03-06T05:34:39.332Z,36.60
2023-03-06T05:37:41.508Z,28.83
2023-03-06T05:40:43.942Z,22.33
2023-03-06T05:43:46.169Z,21.60
2023-03-06T05:46:48.967Z,20.00
2023-03-06T05:49:51.443Z,26.05
2023-03-06T05:52:53.488Z,26.63
2023-03-06T05:55:56.482Z,21.47
2023-03-06T05:58:58.917Z,25.40
2023-03-06T06:02:01.449Z,28.45
2023-03-06T06:05:03.635Z,33.63
2023-03-06T06:08:05.895Z,26.30
2023-03-06T06:11:08.614Z,26.23
2023-03-06T06:14:10.830Z,20.48
2023-03-06T06:17:12.983Z,19.42
2023-03-06T06:20:21.717Z,16.60
2023-03-06T06:23:24.031Z,39.55
2023-03-06T06:26:26.086Z,20.87
2023-03-06T06:29:28.307Z,21.60
2023-03-06T06:32:30.555Z,18.45
2023-03-06T06:35:35.443Z,18.73
2023-03-06T06:38:37.499Z,18.95
2023-03-06T06:41:56.895Z,19.98
2023-03-06T06:45:02.132Z,17.77
2023-03-06T06:48:04.920Z,19.45
2023-03-06T06:51:06.960Z,24.92
2023-03-06T06:54:09.769Z,29.35
2023-03-06T06:57:12.603Z,27.10
2023-03-06T07:00:15.462Z,28.17
2023-03-06T07:03:17.920Z,25.80
2023-03-06T07:06:20.071Z,19.83
2023-03-06T07:09:22.581Z,15.95
2023-03-06T07:12:25.254Z,18.83
2023-03-06T07:15:29.990Z,16.92
2023-03-06T07:18:32.302Z,20.42
2023-03-06T07:21:34.599Z,26.58
2023-03-06T07:25:03.530Z,20.13
2023-03-06T07:28:08.709Z,17.37
2023-03-06T07:31:11.736Z,25.67
2023-03-06T07:34:14.330Z,18.05
2023-03-06T07:37:16.456Z,15.43
2023-03-06T07:40:19.707Z,15.95
2023-03-06T07:43:22.240Z,14.52
2023-03-06T07:46:30.661Z,15.48
2023-03-06T07:49:33.070Z,17.67
2023-03-06T07:52:35.113Z,18.38
2023-03-06T07:55:39.633Z,23.33
2023-03-06T07:58:42.961Z,22.37
2023-03-06T08:01:45.526Z,22.50
2023-03-06T08:04:56.805Z,23.30
2023-03-06T08:07:59.493Z,24.27
2023-03-06T08:11:01.552Z,21.02
2023-03-06T08:14:04.304Z,22.75
2023-03-06T08:17:06.745Z,18.73
2023-03-06T08:20:10.563Z,17.25
2023-03-06T08:23:13.020Z,18.33
2023-03-06T08:26:16.327Z,18.92
2023-03-06T08:29:18.764Z,17.37
2023-03-06T08:32:20.970Z,17.98
2023-03-06T08:35:23.300Z,17.20
2023-03-06T08:38:25.944Z,19.23
2023-03-06T08:41:28.323Z,20.27
2023-03-06T08:44:30.406Z,19.27
2023-03-06T08:47:32.357Z,21.58
2023-03-06T08:50:34.586Z,17.35
2023-03-06T08:53:43.139Z,18.10
2023-03-06T08:56:46.239Z,21.00
2023-03-06T08:59:48.770Z,18.27
2023-03-06T09:02:51.357Z,20.20
2023-03-06T09:05:53.780Z,22.25
2023-03-06T09:08:55.932Z,15.77
2023-03-06T09:11:58.301Z,20.27
2023-03-06T09:15:02.509Z,20.92
2023-03-06T09:18:05.000Z,29.02
2023-03-06T09:21:07.801Z,21.20
2023-03-06T09:24:09.921Z,19.83
2023-03-06T09:27:12.530Z,19.27
2023-03-06T09:30:14.769Z,15.53
2023-03-06T09:33:17.176Z,19.20
2023-03-06T09:36:21.137Z,21.42
2023-03-06T09:39:24.034Z,17.03
2023-03-06T09:42:26.111Z,16.88
2023-03-06T09:45:36.771Z,16.48
2023-03-06T09:48:51.765Z,19.92
2023-03-06T09:52:14.770Z,17.60
2023-03-06T09:55:18.284Z,12.38
2023-03-06T09:58:21.113Z,15.48
2023-03-06T10:01:24.673Z,12.73
2023-03-06T10:04:30.147Z,13.23
2023-03-06T10:07:51.846Z,13.02
2023-03-06T10:10:58.014Z,13.10
2023-03-06T10:14:26.956Z,14.13
2023-03-06T10:17:36.082Z,12.90
2023-03-06T10:20:43.795Z,14.00
2023-03-06T10:23:57.023Z,17.98
2023-03-06T10:27:21.569Z,19.35
2023-03-06T10:30:26.755Z,16.55
2023-03-06T10:33:33.803Z,12.73
2023-03-06T10:36:36.221Z,16.65
2023-03-06T10:39:39.300Z,20.05
2023-03-06T10:42:41.304Z,14.20
2023-03-06T10:45:50.619Z,15.02
2023-03-06T10:49:00.155Z,15.82
2023-03-06T10:52:06.839Z,16.92
2023-03-06T10:55:28.358Z,13.35
2023-03-06T10:58:31.251Z,15.88
2023-03-06T11:01:33.981Z,17.20
2023-03-06T11:04:36.390Z,13.57
2023-03-06T11:07:40.963Z,14.98
2023-03-06T11:10:45.051Z,15.10
2023-03-06T11:13:47.747Z,15.50
2023-03-06T11:16:53.381Z,16.15
2023-03-06T11:20:14.763Z,18.85
2023-03-06T11:23:20.053Z,16.85
2023-03-06T11:26:31.580Z,15.40
2023-03-06T11:29:44.330Z,12.02
2023-03-06T11:32:58.254Z,48.03
2023-03-06T11:36:16.142Z,14.67
2023-03-06T11:39:23.932Z,27.40
2023-03-06T11:42:42.852Z,18.25
2023-03-06T11:45:46.844Z,19.90
2023-03-06T11:49:08.115Z,15.30
2023-03-06T11:52:36.684Z,18.73
2023-03-06T11:55:47.606Z,19.90
2023-03-06T11:58:49.721Z,21.20
2023-03-06T12:01:58.090Z,14.18
2023-03-06T12:05:03.295Z,18.38
2023-03-06T12:08:12.778Z,26.52
2023-03-06T12:11:20.244Z,16.60
2023-03-06T12:14:40.263Z,21.70
2023-03-06T12:18:01.256Z,19.10
2023-03-06T12:21:04.736Z,13.90
2023-03-06T12:24:25.986Z,16.00
2023-03-06T12:27:28.042Z,20.20
2023-03-06T12:30:36.562Z,20.10
2023-03-06T12:33:49.105Z,12.57
2023-03-06T12:36:58.111Z,17.90
2023-03-06T12:40:06.704Z,18.17
2023-03-06T12:43:15.077Z,19.17
2023-03-06T12:46:17.852Z,20.00
2023-03-06T12:49:31.914Z,17.52
2023-03-06T12:52:35.272Z,17.95
2023-03-06T12:55:41.104Z,22.10
2023-03-06T12:58:55.417Z,17.48
2023-03-06T13:02:06.758Z,18.98
2023-03-06T13:05:12.113Z,21.40
2023-03-06T13:08:22.958Z,21.15
2023-03-06T13:12:02.446Z,20.88
2023-03-06T13:15:25.941Z,16.83
2023-03-06T13:18:28.429Z,16.20
2023-03-06T13:21:46.726Z,21.40
2023-03-06T13:24:50.839Z,24.52
2023-03-06T13:27:55.795Z,38.13
2023-03-06T13:30:57.890Z,37.72
2023-03-06T13:34:00.920Z,30.75
2023-03-06T13:37:24.979Z,30.05
2023-03-06T13:40:36.455Z,21.88
2023-03-06T13:43:40.822Z,17.67
2023-03-06T13:46:43.379Z,19.02
2023-03-06T13:49:45.628Z,23.70
2023-03-06T13:52:56.440Z,26.05
2023-03-06T13:56:17.187Z,29.13
2023-03-06T13:59:43.028Z,24.27
2023-03-06T14:02:55.484Z,18.30
2023-03-06T14:05:59.138Z,20.67
2023-03-06T14:09:04.274Z,27.77
2023-03-06T14:12:08.240Z,16.58
2023-03-06T14:15:20.388Z,19.48
2023-03-06T14:18:25.229Z,18.42
2023-03-06T14:21:37.119Z,21.00
2023-03-06T14:24:43.640Z,20.70
2023-03-06T14:27:51.643Z,20.83
2023-03-06T14:30:54.535Z,17.60
2023-03-06T14:34:08.553Z,17.38
2023-03-06T14:37:24.668Z,17.98
2023-03-06T14:40:31.013Z,20.27
2023-03-06T14:43:33.130Z,28.42
2023-03-06T14:46:35.546Z,23.90
2023-03-06T14:49:37.972Z,15.90
2023-03-06T14:52:40.232Z,20.53
2023-03-06T14:55:48.404Z,20.25
2023-03-06T14:58:58.318Z,20.95
2023-03-06T15:02:01.159Z,21.48
2023-03-06T15:05:04.889Z,21.38
2023-03-06T15:08:07.264Z,21.20
2023-03-06T15:11:09.762Z,23.00
2023-03-06T15:14:18.957Z,21.30
2023-03-06T15:17:21.926Z,23.45
2023-03-06T15:20:37.457Z,26.15
2023-03-06T15:23:43.199Z,18.20
2023-03-06T15:26:45.319Z,22.55
2023-03-06T15:29:47.715Z,18.77
2023-03-06T15:32:50.071Z,20.02
2023-03-06T15:35:53.067Z,24.73
2023-03-06T15:39:00.101Z,20.88
2023-03-06T15:42:17.293Z,20.77
2023-03-06T15:45:21.884Z,20.77
2023-03-06T15:48:23.955Z,21.73
2023-03-06T15:51:39.376Z,19.73
2023-03-06T15:54:42.678Z,22.30
2023-03-06T15:57:48.465Z,20.98
2023-03-06T16:00:50.665Z,21.88
2023-03-06T16:03:52.764Z,22.15
2023-03-06T16:06:55.068Z,24.92
2023-03-06T16:10:02.758Z,29.05
2023-03-06T16:13:06.775Z,26.45
2023-03-06T16:16:11.381Z,22.53
2023-03-06T16:19:25.360Z,27.13
2023-03-06T16:22:28.450Z,27.73
2023-03-06T16:25:31.106Z,27.33
2023-03-06T16:28:33.333Z,26.35
2023-03-06T16:31:35.363Z,24.08
2023-03-06T16:34:37.381Z,21.98
2023-03-06T16:37:40.481Z,28.60
2023-03-06T16:40:42.771Z,22.65
2023-03-06T16:43:44.802Z,23.38
2023-03-06T16:46:47.395Z,26.50
2023-03-06T16:49:49.969Z,24.63
2023-03-06T16:52:52.729Z,25.90
2023-03-06T16:55:54.852Z,21.67
2023-03-06T16:58:56.984Z,26.00
2023-03-06T17:02:01.227Z,25.58
2023-03-06T17:05:03.976Z,20.42
2023-03-06T17:08:07.212Z,30.42
2023-03-06T17:11:09.641Z,25.45
2023-03-06T17:14:11.686Z,25.55
2023-03-06T17:17:13.882Z,23.47
2023-03-06T17:20:15.950Z,24.25
2023-03-06T17:23:19.152Z,24.13
2023-03-06T17:26:21.222Z,23.37
2023-03-06T17:29:23.338Z,27.05
2023-03-06T17:32:25.950Z,20.92
2023-03-06T17:35:28.147Z,27.55
2023-03-06T17:38:30.305Z,23.60
2023-03-06T17:41:34.113Z,28.50
2023-03-06T17:44:36.306Z,31.98
2023-03-06T17:47:38.330Z,31.93
2023-03-06T17:50:40.796Z,35.78
2023-03-06T17:53:42.828Z,24.55
2023-03-06T17:56:45.131Z,25.40
2023-03-06T17:59:48.658Z,25.00
2023-03-06T18:02:51.103Z,21.55
2023-03-06T18:06:00.153Z,19.95
2023-03-06T18:09:03.053Z,24.33
2023-03-06T18:12:05.090Z,24.08
2023-03-06T18:15:07.894Z,20.73
2023-03-06T18:18:10.363Z,22.53
2023-03-06T18:21:13.102Z,22.55
2023-03-06T18:24:15.746Z,23.02
2023-03-06T18:27:17.993Z,23.87
2023-03-06T18:30:20.021Z,18.73
2023-03-06T18:33:22.047Z,25.10
2023-03-06T18:36:24.505Z,50.80
2023-03-06T18:39:27.124Z,40.40
2023-03-06T18:42:29.120Z,30.02
2023-03-06T18:45:31.138Z,33.75
2023-03-06T18:48:33.571Z,28.50
2023-03-06T18:51:35.690Z,23.70
2023-03-06T18:54:37.990Z,26.33
2023-03-06T18:57:40.301Z,27.37
2023-03-06T19:00:43.436Z,26.73
2023-03-06T19:03:45.741Z,26.75
2023-03-06T19:06:48.089Z,25.10
2023-03-06T19:09:50.277Z,26.77
2023-03-06T19:12:52.425Z,29.77
2023-03-06T19:15:57.140Z,31.05
2023-03-06T19:18:59.261Z,35.33
2023-03-06T19:22:02.034Z,33.42
2023-03-06T19:25:04.805Z,32.70
2023-03-06T19:28:07.325Z,30.20
2023-03-06T19:31:10.007Z,31.98
2023-03-06T19:34:12.070Z,33.00
2023-03-06T19:37:14.514Z,28.00
2023-03-06T19:40:16.731Z,29.27
2023-03-06T19:43:18.719Z,26.05
2023-03-06T19:46:21.374Z,30.23
2023-03-06T19:49:23.898Z,31.23
2023-03-06T19:52:26.364Z,29.23
2023-03-06T19:55:28.729Z,28.75
2023-03-06T19:58:30.710Z,35.13
2023-03-06T20:01:34.345Z,37.88
2023-03-06T20:04:36.547Z,47.33
2023-03-06T20:07:38.488Z,42.13
2023-03-06T20:10:40.485Z,40.78
2023-03-06T20:13:47.205Z,38.00
2023-03-06T20:16:50.193Z,38.58
2023-03-06T20:19:52.665Z,35.63
2023-03-06T20:22:55.183Z,41.42
2023-03-06T20:26:09.488Z,41.15
2023-03-06T20:29:11.810Z,45.43
2023-03-06T20:32:13.786Z,42.30
2023-03-06T20:35:15.872Z,65.53
2023-03-06T20:38:18.068Z,59.85
2023-03-06T20:41:22.621Z,61.65
2023-03-06T20:44:24.602Z,60.63
2023-03-06T20:47:26.963Z,59.72
2023-03-06T20:50:29.611Z,57.03
2023-03-06T20:53:31.778Z,59.10
2023-03-06T20:56:34.230Z,72.18
2023-03-06T20:59:36.576Z,59.37
2023-03-06T21:02:38.669Z,57.60
2023-03-06T21:05:40.658Z,54.45
2023-03-06T21:08:42.766Z,47.70
2023-03-06T21:11:44.861Z,51.33
2023-03-06T21:14:46.829Z,63.10
2023-03-06T21:17:48.949Z,60.55
2023-03-06T21:20:57.871Z,49.83
2023-03-06T21:24:00.214Z,52.45
2023-03-06T21:27:02.236Z,46.00
2023-03-06T21:30:05.006Z,55.73
2023-03-06T21:33:10.594Z,50.10
2023-03-06T21:36:13.089Z,49.15
2023-03-06T21:39:15.209Z,49.22
2023-03-06T21:42:17.633Z,52.53
2023-03-06T21:45:19.973Z,43.97
2023-03-06T21:48:21.997Z,45.08
2023-03-06T21:51:24.287Z,50.27
2023-03-06T21:54:27.134Z,51.05
2023-03-06T21:57:29.152Z,49.55
2023-03-06T22:00:33.210Z,50.97
2023-03-06T22:03:35.324Z,53.55
2023-03-06T22:06:38.327Z,62.65
2023-03-06T22:09:40.397Z,56.67
2023-03-06T22:12:42.424Z,54.30
2023-03-06T22:15:51.398Z,60.80
2023-03-06T22:18:53.598Z,56.38
2023-03-06T22:21:55.760Z,62.43
2023-03-06T22:24:58.084Z,58.75
2023-03-06T22:27:59.989Z,43.55
2023-03-06T22:31:05.837Z,52.70
2023-03-06T22:34:08.024Z,53.10
2023-03-06T22:37:10.083Z,48.10
2023-03-06T22:40:12.231Z,51.00
2023-03-06T22:43:14.633Z,46.95
2023-03-06T22:46:17.277Z,46.80
2023-03-06T22:49:19.692Z,48.25
2023-03-06T22:52:21.728Z,47.37
2023-03-06T22:55:23.801Z,50.47
2023-03-06T22:58:25.860Z,45.55
2023-03-06T23:01:28.991Z,45.70
2023-03-06T23:04:31.116Z,44.97
2023-03-06T23:07:33.362Z,44.28
2023-03-06T23:10:38.883Z,53.15
2023-03-06T23:13:59.828Z,43.20
2023-03-06T23:17:20.333Z,43.97
2023-03-06T23:20:44.134Z,47.92
2023-03-06T23:24:05.651Z,49.37
2023-03-06T23:27:07.782Z,46.60
2023-03-06T23:30:10.053Z,44.60
2023-03-06T23:33:12.026Z,45.13
2023-03-06T23:36:14.809Z,57.53
2023-03-06T23:39:16.944Z,52.55
2023-03-06T23:42:20.057Z,50.75
2023-03-06T23:45:22.237Z,51.08
2023-03-06T23:48:25.128Z,46.45
2023-03-06T23:51:27.091Z,47.75
2023-03-06T23:54:29.496Z,48.13
2023-03-06T23:57:32.063Z,54.08
